Lamoni, IA

10:03 AM CDT on July 12, 2014 (GMT -0500)
Lamoni Municipal (KLWD) Elev 1132 ft | 40.63 °N, 93.90 °W | Change Station

Current weather conditions updated 10 minutes ago

Clear
Clear
78 °F
Feels Like 78 °F
N
8
Wind Variable Wind from SSE

Today is forecast to be Warmer than yesterday. Isolated thunderstorms.

Today
High -- | Low -- °F
--% Chance of Precip.
Yesterday
High -- | Low -- °F
Precip. -- in
5:55 AM 8:46 PM
Full, 100% visible
Pressure 30.01 in
Visibility 10.0 miles
Clouds Clear
Dew Point 71 °F
Humidity 79%
Rainfall 0.00 in
Snow Depth Not available.
UV 6 out of 12
Pollen .40 out of 12
Air Quality Not available.
Flu Activity Sporadic
METAR KLWD 121453Z AUTO 15007KT 10SM CLR 26/22 A3003 RMK AO2 SLP161 T02560217 58003

More Conditions Fewer Conditions

Pressure 30.01 in
Visibility 10.0 miles
Clouds Clear
Dew Point 71 °F
Humidity 79%
Rainfall 0.00 in
Snow Depth Not available.
UV 6 out of 12
Pollen .40 out of 12
Air Quality Not available.
Flu Activity Sporadic
METAR KLWD 121453Z AUTO 15007KT 10SM CLR 26/22 A3003 RMK AO2 SLP161 T02560217 58003

More Conditions Fewer Conditions

10-Day Weather Forecast

Almanac

Astronomy

Jul. 12, 2014 Rise Set
Actual Time 5:55 AM CDT 8:46 PM CDT
Civil Twilight 5:22 AM CDT 9:19 PM CDT
Nautical Twilight 4:41 AM CDT 10:00 PM CDT
Astronomical Twilight 3:54 AM CDT 10:47 PM CDT
Moon 8:49 PM CDT 6:16 AM CDT
Length of Visible Light 15h 56m
Length of Day
14h 51m
Tomorrow will be 1m 15s shorter.
Full, 100% of the Moon is Illuminated
Today
Full
Jul 18
Last Quarter
Jul 26
New
Aug 3
First Quarter
Aug 10
Full

Today's Extremes

State Highs State Lows

Community

WunderPhotos

Upload Photos

1,732,848 photos uploaded!

WunderBlogs® & News

By Dr. Jeff Masters
Director of Meteorology, Weather Underground
By Kari Strenfel
Meteorologist, Weather Underground
By Christopher C. Burt
Weather Historian, Weather Underground
July 12, 2014
July 12, 2014
July 12, 2014

Nearby

Snow Depth

Station Depth Elevation
No new snow has been reported.

Earthquake Activity

City Distance Mag. Time & Date
No recent earthquake activity has been reported nearby.
Minimum magnitude displayed is 2.5.

Coastal Water Temperatures

Place Temperature
No Stations Reporting

Nearby Weather Stations

Station Location Temp. Heat Index Dew Point Humidity Wind Precip. Elev Updated Type
Bethany, Bethany, MO 81.3 °F 87 °F 74 °F 79% South  at  3.0 mph 0.00 in / hr 1017 ft 10:03 AM CDT Rapid Fire
MesoWest LINEVL , Lineville, IA 72 °F - - - North  at  - 0.00 in / hr 1098 ft 6:35 AM CDT MADIS

Show More Stations Show Fewer Stations